Time,TemperatureF,DewpointF,PressureIn,WindDirection,WindDirectionDegrees,WindSpeedMPH,WindSpeedGustMPH,Humidity,HourlyPrecipIn,Conditions,Clouds,dailyrainin,SoftwareType,DateUTC
2013-07-04 02:10:00,73.0,-99.9,-100.00,WSW,245,1.0,2.0,-999,-99.99,,,-99.99,,2013-07-04 08:10:00,
2013-07-04 02:53:00,73.0,-99.9,-100.00,WSW,245,1.0,2.0,-999,-99.99,,,-99.99,,2013-07-04 08:53:00,
2013-07-04 03:02:00,73.0,-99.9,-100.00,WSW,245,1.0,2.0,-999,-99.99,,,-99.99,,2013-07-04 09:02:00,
2013-07-04 03:20:00,68.0,-99.9,-100.00,North,356,0.0,3.0,-999,-99.99,,,-99.99,,2013-07-04 09:20:00,
2013-07-04 03:52:00,69.0,-99.9,-100.00,NW,306,0.0,1.0,-999,-99.99,,,-99.99,,2013-07-04 09:52:00,
2013-07-04 04:11:00,68.0,-99.9,-100.00,North,356,0.0,3.0,-999,-99.99,,,-99.99,,2013-07-04 10:11:00,
2013-07-04 04:20:00,66.0,-99.9,-100.00,NE,48,1.0,2.0,-999,-99.99,,,-99.99,,2013-07-04 10:20:00,
2013-07-04 04:53:00,66.0,-99.9,-100.00,ENE,74,1.0,2.0,-999,-99.99,,,-99.99,,2013-07-04 10:53:00,
2013-07-04 05:12:00,66.0,-99.9,-100.00,NE,48,1.0,2.0,-999,-99.99,,,-99.99,,2013-07-04 11:12:00,
2013-07-04 06:12:00,65.0,-99.9,-100.00,NW,317,1.0,2.0,-999,-99.99,,,-99.99,,2013-07-04 12:12:00,
2013-07-04 06:22:00,65.0,-99.9,-100.00,NW,317,1.0,2.0,-999,-99.99,,,-99.99,,2013-07-04 12:22:00,
2013-07-04 08:12:00,70.0,-99.9,-100.00,West,261,1.0,1.0,-999,-99.99,,,-99.99,,2013-07-04 14:12:00,
2013-07-04 08:22:00,70.0,-99.9,-100.00,West,261,1.0,1.0,-999,-99.99,,,-99.99,,2013-07-04 14:22:00,
2013-07-04 08:43:00,73.0,-99.9,-100.00,WSW,249,1.0,1.0,-999,-99.99,,,-99.99,,2013-07-04 14:43:00,
2013-07-04 09:43:00,74.0,-99.9,-100.00,SW,235,4.0,4.0,-999,-99.99,,,-99.99,,2013-07-04 15:43:00,
2013-07-04 09:53:00,74.0,-99.9,-100.00,SW,235,4.0,4.0,-999,-99.99,,,-99.99,,2013-07-04 15:53:00,
2013-07-04 10:20:00,84.0,-99.9,-100.00,WSW,257,3.0,6.0,-999,-99.99,,,-99.99,,2013-07-04 16:20:00,
2013-07-04 11:12:00,84.0,-99.9,-100.00,WSW,257,3.0,6.0,-999,-99.99,,,-99.99,,2013-07-04 17:12:00,
2013-07-04 13:12:00,93.0,-99.9,-100.00,NNW,335,1.0,3.0,-999,-99.99,,,-99.99,,2013-07-04 19:12:00,
2013-07-04 13:22:00,93.0,-99.9,-100.00,NNW,335,1.0,3.0,-999,-99.99,,,-99.99,,2013-07-04 19:22:00,
2013-07-04 15:32:00,102.0,-99.9,-100.00,SE,142,1.0,3.0,-999,-99.99,,,-99.99,,2013-07-04 21:32:00,
2013-07-04 17:40:00,95.0,-99.9,-100.00,SW,231,3.0,4.0,-999,-99.99,,,-99.99,,2013-07-04 23:40:00,
2013-07-04 17:43:00,99.0,-99.9,-100.00,WSW,257,1.0,3.0,-999,-99.99,,,-99.99,,2013-07-04 23:43:00,
2013-07-04 17:52:00,99.0,-99.9,-100.00,WSW,257,1.0,3.0,-999,-99.99,,,-99.99,,2013-07-04 23:52:00,
2013-07-04 18:32:00,95.0,-99.9,-100.00,SW,231,3.0,4.0,-999,-99.99,,,-99.99,,2013-07-05 00:32:00,
2013-07-04 19:11:00,92.0,-99.9,-100.00,WSW,245,3.0,4.0,-999,-99.99,,,-99.99,,2013-07-05 01:11:00,
2013-07-04 19:22:00,92.0,-99.9,-100.00,WSW,245,3.0,4.0,-999,-99.99,,,-99.99,,2013-07-05 01:22:00,
2013-07-04 20:30:00,85.0,-99.9,-100.00,NNE,12,2.0,2.0,-999,-99.99,,,-99.99,,2013-07-05 02:30:00,
2013-07-04 20:43:00,88.0,-99.9,-100.00,NNW,343,1.0,3.0,-999,-99.99,,,-99.99,,2013-07-05 02:43:00,
2013-07-04 20:53:00,87.0,-99.9,-100.00,NE,48,0.0,2.0,-999,-99.99,,,-99.99,,2013-07-05 02:53:00,
2013-07-04 21:02:00,87.0,-99.9,-100.00,NE,48,0.0,2.0,-999,-99.99,,,-99.99,,2013-07-05 03:02:00,
2013-07-04 22:53:00,82.0,-99.9,-100.00,WSW,249,0.0,2.0,-999,-99.99,,,-99.99,,2013-07-05 04:53:00,
2013-07-04 23:01:00,82.0,-99.9,-100.00,WSW,249,0.0,2.0,-999,-99.99,,,-99.99,,2013-07-05 05:01:00,
2013-07-04 23:12:00,82.0,-99.9,-100.00,WSW,249,0.0,2.0,-999,-99.99,,,-99.99,,2013-07-05 05:12:00,